sensor_id;sensor_type;location;lat;lon;timestamp;P1;durP1;ratioP1;P2;durP2;ratioP2
22030;SDS011;11179;52.106;21.024;2023-09-07T00:01:06;23.03;;;7.50;;
22030;SDS011;11179;52.106;21.024;2023-09-07T00:03:32;20.33;;;7.77;;
22030;SDS011;11179;52.106;21.024;2023-09-07T00:05:57;19.40;;;7.47;;
22030;SDS011;11179;52.106;21.024;2023-09-07T00:08:22;17.00;;;7.43;;
22030;SDS011;11179;52.106;21.024;2023-09-07T00:10:49;17.10;;;8.07;;
22030;SDS011;11179;52.106;21.024;2023-09-07T00:13:14;14.47;;;7.20;;
22030;SDS011;11179;52.106;21.024;2023-09-07T00:15:39;18.23;;;7.17;;
22030;SDS011;11179;52.106;21.024;2023-09-07T00:18:04;12.90;;;6.87;;
22030;SDS011;11179;52.106;21.024;2023-09-07T00:20:30;19.43;;;7.30;;
22030;SDS011;11179;52.106;21.024;2023-09-07T00:22:58;16.10;;;6.10;;
22030;SDS011;11179;52.106;21.024;2023-09-07T00:25:24;14.23;;;7.17;;
22030;SDS011;11179;52.106;21.024;2023-09-07T00:27:50;16.77;;;7.70;;
22030;SDS011;11179;52.106;21.024;2023-09-07T00:30:15;21.80;;;7.63;;
22030;SDS011;11179;52.106;21.024;2023-09-07T00:32:41;16.60;;;7.17;;
22030;SDS011;11179;52.106;21.024;2023-09-07T00:35:06;14.17;;;6.50;;
22030;SDS011;11179;52.106;21.024;2023-09-07T00:37:32;15.70;;;7.40;;
22030;SDS011;11179;52.106;21.024;2023-09-07T00:39:58;12.80;;;6.27;;
22030;SDS011;11179;52.106;21.024;2023-09-07T00:42:23;19.10;;;7.53;;
22030;SDS011;11179;52.106;21.024;2023-09-07T00:44:48;14.47;;;7.03;;
22030;SDS011;11179;52.106;21.024;2023-09-07T00:47:17;15.90;;;7.70;;
22030;SDS011;11179;52.106;21.024;2023-09-07T00:49:42;17.33;;;7.27;;
22030;SDS011;11179;52.106;21.024;2023-09-07T00:52:08;19.07;;;7.53;;
22030;SDS011;11179;52.106;21.024;2023-09-07T00:54:36;18.20;;;8.00;;
22030;SDS011;11179;52.106;21.024;2023-09-07T00:57:05;15.67;;;7.90;;
22030;SDS011;11179;52.106;21.024;2023-09-07T00:59:34;13.73;;;7.23;;
22030;SDS011;11179;52.106;21.024;2023-09-07T01:02:00;17.30;;;8.97;;
22030;SDS011;11179;52.106;21.024;2023-09-07T01:04:25;13.93;;;7.50;;
22030;SDS011;11179;52.106;21.024;2023-09-07T01:06:52;16.37;;;7.30;;
22030;SDS011;11179;52.106;21.024;2023-09-07T01:09:39;18.60;;;7.50;;
22030;SDS011;11179;52.106;21.024;2023-09-07T01:12:07;16.17;;;7.00;;
22030;SDS011;11179;52.106;21.024;2023-09-07T01:14:36;21.00;;;8.53;;
22030;SDS011;11179;52.106;21.024;2023-09-07T01:17:02;15.97;;;7.07;;
22030;SDS011;11179;52.106;21.024;2023-09-07T01:19:28;15.03;;;7.60;;
22030;SDS011;11179;52.106;21.024;2023-09-07T01:21:54;16.23;;;7.33;;
22030;SDS011;11179;52.106;21.024;2023-09-07T01:24:19;12.90;;;7.30;;
22030;SDS011;11179;52.106;21.024;2023-09-07T01:26:46;14.20;;;8.00;;
22030;SDS011;11179;52.106;21.024;2023-09-07T01:29:14;13.83;;;7.43;;
22030;SDS011;11179;52.106;21.024;2023-09-07T01:31:41;19.10;;;7.80;;
22030;SDS011;11179;52.106;21.024;2023-09-07T01:34:07;20.47;;;8.00;;
22030;SDS011;11179;52.106;21.024;2023-09-07T01:36:32;14.37;;;7.87;;
22030;SDS011;11179;52.106;21.024;2023-09-07T01:38:58;21.20;;;8.53;;
22030;SDS011;11179;52.106;21.024;2023-09-07T01:41:23;13.17;;;7.33;;
22030;SDS011;11179;52.106;21.024;2023-09-07T01:43:48;13.03;;;7.00;;
22030;SDS011;11179;52.106;21.024;2023-09-07T01:46:14;16.50;;;7.20;;
22030;SDS011;11179;52.106;21.024;2023-09-07T01:48:39;18.63;;;7.43;;
22030;SDS011;11179;52.106;21.024;2023-09-07T01:51:04;16.37;;;7.87;;
22030;SDS011;11179;52.106;21.024;2023-09-07T01:53:29;18.83;;;7.10;;
22030;SDS011;11179;52.106;21.024;2023-09-07T01:55:55;11.33;;;7.17;;
22030;SDS011;11179;52.106;21.024;2023-09-07T01:58:21;21.53;;;7.50;;
22030;SDS011;11179;52.106;21.024;2023-09-07T02:00:46;17.17;;;8.23;;
22030;SDS011;11179;52.106;21.024;2023-09-07T02:03:11;16.60;;;7.30;;
22030;SDS011;11179;52.106;21.024;2023-09-07T02:05:37;15.67;;;8.10;;
22030;SDS011;11179;52.106;21.024;2023-09-07T02:08:02;18.13;;;8.13;;
22030;SDS011;11179;52.106;21.024;2023-09-07T02:10:29;17.80;;;7.90;;
22030;SDS011;11179;52.106;21.024;2023-09-07T02:12:55;17.73;;;6.90;;
22030;SDS011;11179;52.106;21.024;2023-09-07T02:15:22;13.47;;;6.97;;
22030;SDS011;11179;52.106;21.024;2023-09-07T02:17:48;14.60;;;7.63;;
22030;SDS011;11179;52.106;21.024;2023-09-07T02:20:13;14.30;;;7.63;;
22030;SDS011;11179;52.106;21.024;2023-09-07T02:22:39;13.10;;;7.50;;
22030;SDS011;11179;52.106;21.024;2023-09-07T02:25:04;15.57;;;7.33;;
22030;SDS011;11179;52.106;21.024;2023-09-07T02:27:30;15.43;;;7.47;;
22030;SDS011;11179;52.106;21.024;2023-09-07T02:29:57;13.37;;;7.83;;
22030;SDS011;11179;52.106;21.024;2023-09-07T02:32:22;20.13;;;9.40;;
22030;SDS011;11179;52.106;21.024;2023-09-07T02:34:47;15.70;;;7.10;;
22030;SDS011;11179;52.106;21.024;2023-09-07T02:37:13;16.43;;;8.00;;
22030;SDS011;11179;52.106;21.024;2023-09-07T02:39:39;21.40;;;9.07;;
22030;SDS011;11179;52.106;21.024;2023-09-07T02:42:05;18.73;;;8.00;;
22030;SDS011;11179;52.106;21.024;2023-09-07T02:44:30;17.80;;;8.30;;
22030;SDS011;11179;52.106;21.024;2023-09-07T02:46:55;14.23;;;7.00;;
22030;SDS011;11179;52.106;21.024;2023-09-07T02:49:21;13.93;;;7.27;;
22030;SDS011;11179;52.106;21.024;2023-09-07T02:51:46;16.17;;;7.73;;
22030;SDS011;11179;52.106;21.024;2023-09-07T02:54:12;17.00;;;8.03;;
22030;SDS011;11179;52.106;21.024;2023-09-07T02:56:37;12.30;;;7.63;;
22030;SDS011;11179;52.106;21.024;2023-09-07T02:59:02;16.77;;;7.80;;
22030;SDS011;11179;52.106;21.024;2023-09-07T03:01:28;15.00;;;7.83;;
22030;SDS011;11179;52.106;21.024;2023-09-07T03:03:53;13.70;;;8.17;;
22030;SDS011;11179;52.106;21.024;2023-09-07T03:06:19;16.63;;;8.03;;
22030;SDS011;11179;52.106;21.024;2023-09-07T03:08:45;13.47;;;7.70;;
22030;SDS011;11179;52.106;21.024;2023-09-07T03:11:11;22.10;;;8.50;;
22030;SDS011;11179;52.106;21.024;2023-09-07T03:13:37;16.47;;;7.93;;
22030;SDS011;11179;52.106;21.024;2023-09-07T03:16:02;17.30;;;7.70;;
22030;SDS011;11179;52.106;21.024;2023-09-07T03:18:28;15.70;;;8.40;;
22030;SDS011;11179;52.106;21.024;2023-09-07T03:20:54;16.33;;;7.37;;
22030;SDS011;11179;52.106;21.024;2023-09-07T03:23:21;14.83;;;7.70;;
22030;SDS011;11179;52.106;21.024;2023-09-07T03:25:47;15.20;;;7.50;;
22030;SDS011;11179;52.106;21.024;2023-09-07T03:28:13;19.07;;;7.93;;
22030;SDS011;11179;52.106;21.024;2023-09-07T03:30:38;20.47;;;8.17;;
22030;SDS011;11179;52.106;21.024;2023-09-07T03:33:04;15.80;;;8.10;;
22030;SDS011;11179;52.106;21.024;2023-09-07T03:35:39;20.97;;;8.27;;
22030;SDS011;11179;52.106;21.024;2023-09-07T03:38:23;21.63;;;7.90;;
22030;SDS011;11179;52.106;21.024;2023-09-07T03:40:49;14.27;;;8.93;;
22030;SDS011;11179;52.106;21.024;2023-09-07T03:43:15;13.60;;;8.33;;
22030;SDS011;11179;52.106;21.024;2023-09-07T03:45:40;16.83;;;8.57;;
22030;SDS011;11179;52.106;21.024;2023-09-07T03:48:05;16.30;;;9.33;;
22030;SDS011;11179;52.106;21.024;2023-09-07T03:50:31;17.07;;;8.30;;
22030;SDS011;11179;52.106;21.024;2023-09-07T03:52:56;15.30;;;6.70;;
22030;SDS011;11179;52.106;21.024;2023-09-07T03:55:22;20.00;;;8.57;;
22030;SDS011;11179;52.106;21.024;2023-09-07T03:57:47;15.40;;;7.53;;
22030;SDS011;11179;52.106;21.024;2023-09-07T04:00:12;16.00;;;8.60;;
22030;SDS011;11179;52.106;21.024;2023-09-07T04:02:39;14.60;;;8.43;;
22030;SDS011;11179;52.106;21.024;2023-09-07T04:05:04;16.63;;;8.17;;
22030;SDS011;11179;52.106;21.024;2023-09-07T04:07:30;14.20;;;7.20;;
22030;SDS011;11179;52.106;21.024;2023-09-07T04:09:56;13.40;;;7.57;;
22030;SDS011;11179;52.106;21.024;2023-09-07T04:12:22;17.07;;;7.77;;
22030;SDS011;11179;52.106;21.024;2023-09-07T04:14:47;14.40;;;7.27;;
22030;SDS011;11179;52.106;21.024;2023-09-07T04:17:13;18.00;;;8.60;;
22030;SDS011;11179;52.106;21.024;2023-09-07T04:19:40;15.47;;;8.40;;
22030;SDS011;11179;52.106;21.024;2023-09-07T04:22:05;14.60;;;7.10;;
22030;SDS011;11179;52.106;21.024;2023-09-07T04:24:31;13.27;;;7.40;;
22030;SDS011;11179;52.106;21.024;2023-09-07T04:27:00;18.73;;;7.67;;
22030;SDS011;11179;52.106;21.024;2023-09-07T04:29:26;14.87;;;8.10;;
22030;SDS011;11179;52.106;21.024;2023-09-07T04:31:52;20.37;;;8.90;;
22030;SDS011;11179;52.106;21.024;2023-09-07T04:34:17;20.30;;;8.50;;
22030;SDS011;11179;52.106;21.024;2023-09-07T04:36:43;18.03;;;7.93;;
22030;SDS011;11179;52.106;21.024;2023-09-07T04:39:08;14.33;;;8.30;;
22030;SDS011;11179;52.106;21.024;2023-09-07T04:41:34;19.67;;;8.83;;
22030;SDS011;11179;52.106;21.024;2023-09-07T04:43:59;16.20;;;7.63;;
22030;SDS011;11179;52.106;21.024;2023-09-07T04:46:25;18.90;;;8.00;;
22030;SDS011;11179;52.106;21.024;2023-09-07T04:48:50;16.20;;;7.77;;
22030;SDS011;11179;52.106;21.024;2023-09-07T04:51:15;15.87;;;7.30;;
22030;SDS011;11179;52.106;21.024;2023-09-07T04:53:41;16.97;;;7.80;;
22030;SDS011;11179;52.106;21.024;2023-09-07T04:56:07;16.50;;;8.00;;
22030;SDS011;11179;52.106;21.024;2023-09-07T04:58:33;20.23;;;7.57;;
22030;SDS011;11179;52.106;21.024;2023-09-07T05:01:06;14.93;;;7.50;;
22030;SDS011;11179;52.106;21.024;2023-09-07T05:03:34;13.03;;;7.10;;
22030;SDS011;11179;52.106;21.024;2023-09-07T05:06:00;17.00;;;8.37;;
22030;SDS011;11179;52.106;21.024;2023-09-07T05:08:28;21.67;;;8.77;;
22030;SDS011;11179;52.106;21.024;2023-09-07T05:11:01;27.53;;;8.27;;
22030;SDS011;11179;52.106;21.024;2023-09-07T05:13:27;20.43;;;8.33;;
22030;SDS011;11179;52.106;21.024;2023-09-07T05:15:54;16.23;;;7.67;;
22030;SDS011;11179;52.106;21.024;2023-09-07T05:18:21;19.43;;;8.93;;
22030;SDS011;11179;52.106;21.024;2023-09-07T05:20:48;21.67;;;8.40;;
22030;SDS011;11179;52.106;21.024;2023-09-07T05:23:14;19.23;;;8.33;;
22030;SDS011;11179;52.106;21.024;2023-09-07T05:25:43;16.93;;;8.23;;
22030;SDS011;11179;52.106;21.024;2023-09-07T05:28:13;17.90;;;8.63;;
22030;SDS011;11179;52.106;21.024;2023-09-07T05:30:39;15.80;;;7.73;;
22030;SDS011;11179;52.106;21.024;2023-09-07T05:33:04;18.50;;;9.23;;
22030;SDS011;11179;52.106;21.024;2023-09-07T05:35:30;17.87;;;10.07;;
22030;SDS011;11179;52.106;21.024;2023-09-07T05:37:57;31.93;;;12.87;;
22030;SDS011;11179;52.106;21.024;2023-09-07T05:40:23;38.70;;;12.90;;
22030;SDS011;11179;52.106;21.024;2023-09-07T05:42:49;26.60;;;11.73;;
22030;SDS011;11179;52.106;21.024;2023-09-07T05:45:14;24.60;;;12.50;;
22030;SDS011;11179;52.106;21.024;2023-09-07T05:47:39;32.40;;;14.10;;
22030;SDS011;11179;52.106;21.024;2023-09-07T05:50:06;28.20;;;13.60;;
22030;SDS011;11179;52.106;21.024;2023-09-07T05:52:32;27.60;;;12.87;;
22030;SDS011;11179;52.106;21.024;2023-09-07T05:54:57;27.83;;;13.63;;
22030;SDS011;11179;52.106;21.024;2023-09-07T05:57:22;37.80;;;13.77;;
22030;SDS011;11179;52.106;21.024;2023-09-07T05:59:49;24.07;;;12.00;;
22030;SDS011;11179;52.106;21.024;2023-09-07T06:02:14;24.10;;;12.77;;
22030;SDS011;11179;52.106;21.024;2023-09-07T06:04:42;22.67;;;12.33;;
22030;SDS011;11179;52.106;21.024;2023-09-07T06:07:08;20.77;;;11.53;;
22030;SDS011;11179;52.106;21.024;2023-09-07T06:09:33;21.53;;;11.73;;
22030;SDS011;11179;52.106;21.024;2023-09-07T06:12:00;26.70;;;13.37;;
22030;SDS011;11179;52.106;21.024;2023-09-07T06:14:25;25.23;;;12.20;;
22030;SDS011;11179;52.106;21.024;2023-09-07T06:16:51;26.27;;;11.60;;
22030;SDS011;11179;52.106;21.024;2023-09-07T06:19:17;30.90;;;12.73;;
22030;SDS011;11179;52.106;21.024;2023-09-07T06:21:45;29.27;;;13.00;;
22030;SDS011;11179;52.106;21.024;2023-09-07T06:24:11;21.53;;;11.53;;
22030;SDS011;11179;52.106;21.024;2023-09-07T06:26:36;28.13;;;12.67;;
22030;SDS011;11179;52.106;21.024;2023-09-07T06:29:01;26.33;;;12.63;;
22030;SDS011;11179;52.106;21.024;2023-09-07T06:31:27;27.30;;;12.17;;
22030;SDS011;11179;52.106;21.024;2023-09-07T06:33:52;20.23;;;11.87;;
22030;SDS011;11179;52.106;21.024;2023-09-07T06:36:18;28.30;;;11.93;;
22030;SDS011;11179;52.106;21.024;2023-09-07T06:38:43;20.47;;;12.03;;
22030;SDS011;11179;52.106;21.024;2023-09-07T06:41:08;27.23;;;11.03;;
22030;SDS011;11179;52.106;21.024;2023-09-07T06:43:34;19.87;;;12.30;;
22030;SDS011;11179;52.106;21.024;2023-09-07T06:46:06;24.83;;;12.50;;
22030;SDS011;11179;52.106;21.024;2023-09-07T06:48:33;26.50;;;12.30;;
22030;SDS011;11179;52.106;21.024;2023-09-07T06:51:05;21.50;;;11.40;;
22030;SDS011;11179;52.106;21.024;2023-09-07T06:53:31;22.33;;;11.77;;
22030;SDS011;11179;52.106;21.024;2023-09-07T06:56:00;21.87;;;10.90;;
22030;SDS011;11179;52.106;21.024;2023-09-07T06:58:26;23.30;;;11.43;;
22030;SDS011;11179;52.106;21.024;2023-09-07T07:00:52;23.00;;;11.07;;
22030;SDS011;11179;52.106;21.024;2023-09-07T07:03:18;22.23;;;11.57;;
22030;SDS011;11179;52.106;21.024;2023-09-07T07:05:46;18.00;;;11.10;;
22030;SDS011;11179;52.106;21.024;2023-09-07T07:08:24;19.40;;;10.17;;
22030;SDS011;11179;52.106;21.024;2023-09-07T07:10:49;23.07;;;10.20;;
22030;SDS011;11179;52.106;21.024;2023-09-07T07:13:15;18.37;;;11.00;;
22030;SDS011;11179;52.106;21.024;2023-09-07T07:15:41;20.63;;;11.20;;
22030;SDS011;11179;52.106;21.024;2023-09-07T07:18:09;21.47;;;12.07;;
22030;SDS011;11179;52.106;21.024;2023-09-07T07:20:37;19.07;;;10.77;;
22030;SDS011;11179;52.106;21.024;2023-09-07T07:23:04;23.73;;;11.47;;
22030;SDS011;11179;52.106;21.024;2023-09-07T07:25:31;19.73;;;10.77;;
22030;SDS011;11179;52.106;21.024;2023-09-07T07:27:58;17.53;;;10.50;;
22030;SDS011;11179;52.106;21.024;2023-09-07T07:30:26;19.63;;;10.47;;
22030;SDS011;11179;52.106;21.024;2023-09-07T07:32:54;18.40;;;10.33;;
22030;SDS011;11179;52.106;21.024;2023-09-07T07:35:26;23.17;;;9.67;;
22030;SDS011;11179;52.106;21.024;2023-09-07T07:37:54;21.23;;;9.80;;
22030;SDS011;11179;52.106;21.024;2023-09-07T07:40:32;18.17;;;10.30;;
22030;SDS011;11179;52.106;21.024;2023-09-07T07:43:03;20.07;;;11.07;;
22030;SDS011;11179;52.106;21.024;2023-09-07T07:45:32;19.23;;;10.47;;
22030;SDS011;11179;52.106;21.024;2023-09-07T07:48:09;21.50;;;9.70;;
22030;SDS011;11179;52.106;21.024;2023-09-07T07:50:41;18.63;;;10.30;;
22030;SDS011;11179;52.106;21.024;2023-09-07T07:53:08;22.50;;;10.83;;
22030;SDS011;11179;52.106;21.024;2023-09-07T07:55:42;23.30;;;10.93;;
22030;SDS011;11179;52.106;21.024;2023-09-07T07:58:13;25.10;;;12.33;;
22030;SDS011;11179;52.106;21.024;2023-09-07T08:00:49;18.43;;;10.57;;
22030;SDS011;11179;52.106;21.024;2023-09-07T08:03:16;17.00;;;10.77;;
22030;SDS011;11179;52.106;21.024;2023-09-07T08:05:46;24.60;;;9.90;;
22030;SDS011;11179;52.106;21.024;2023-09-07T08:08:13;21.50;;;10.23;;
22030;SDS011;11179;52.106;21.024;2023-09-07T08:10:41;20.57;;;11.30;;
22030;SDS011;11179;52.106;21.024;2023-09-07T08:13:11;28.67;;;12.87;;
22030;SDS011;11179;52.106;21.024;2023-09-07T08:15:44;22.43;;;10.47;;
22030;SDS011;11179;52.106;21.024;2023-09-07T08:18:12;17.20;;;9.97;;
22030;SDS011;11179;52.106;21.024;2023-09-07T08:20:44;20.00;;;9.30;;
22030;SDS011;11179;52.106;21.024;2023-09-07T08:23:16;20.27;;;8.97;;
22030;SDS011;11179;52.106;21.024;2023-09-07T08:25:48;19.67;;;9.37;;
22030;SDS011;11179;52.106;21.024;2023-09-07T08:28:13;23.30;;;9.40;;
22030;SDS011;11179;52.106;21.024;2023-09-07T08:30:40;21.43;;;9.67;;
22030;SDS011;11179;52.106;21.024;2023-09-07T08:33:06;20.13;;;9.87;;
22030;SDS011;11179;52.106;21.024;2023-09-07T08:35:31;20.03;;;9.90;;
22030;SDS011;11179;52.106;21.024;2023-09-07T08:38:00;18.93;;;9.90;;
22030;SDS011;11179;52.106;21.024;2023-09-07T08:40:33;18.77;;;9.60;;
22030;SDS011;11179;52.106;21.024;2023-09-07T08:43:05;19.70;;;9.70;;
22030;SDS011;11179;52.106;21.024;2023-09-07T08:45:58;17.30;;;10.37;;
22030;SDS011;11179;52.106;21.024;2023-09-07T08:48:48;21.57;;;9.90;;
22030;SDS011;11179;52.106;21.024;2023-09-07T08:51:27;17.20;;;8.40;;
22030;SDS011;11179;52.106;21.024;2023-09-07T08:53:56;19.60;;;10.27;;
22030;SDS011;11179;52.106;21.024;2023-09-07T08:56:26;16.17;;;8.47;;
22030;SDS011;11179;52.106;21.024;2023-09-07T08:58:53;15.90;;;8.00;;
22030;SDS011;11179;52.106;21.024;2023-09-07T09:01:19;11.87;;;6.90;;
22030;SDS011;11179;52.106;21.024;2023-09-07T09:03:49;17.93;;;7.77;;
22030;SDS011;11179;52.106;21.024;2023-09-07T09:06:21;16.47;;;8.87;;
22030;SDS011;11179;52.106;21.024;2023-09-07T09:08:54;14.20;;;7.20;;
22030;SDS011;11179;52.106;21.024;2023-09-07T09:11:21;14.60;;;6.80;;
22030;SDS011;11179;52.106;21.024;2023-09-07T09:13:52;14.73;;;7.67;;
22030;SDS011;11179;52.106;21.024;2023-09-07T09:16:18;12.03;;;6.70;;
22030;SDS011;11179;52.106;21.024;2023-09-07T09:19:03;13.57;;;7.60;;
22030;SDS011;11179;52.106;21.024;2023-09-07T09:21:39;19.87;;;7.00;;
22030;SDS011;11179;52.106;21.024;2023-09-07T09:24:24;15.37;;;6.33;;
22030;SDS011;11179;52.106;21.024;2023-09-07T09:27:04;10.60;;;6.10;;
22030;SDS011;11179;52.106;21.024;2023-09-07T09:29:52;13.60;;;6.67;;
22030;SDS011;11179;52.106;21.024;2023-09-07T09:32:51;17.63;;;7.00;;
22030;SDS011;11179;52.106;21.024;2023-09-07T09:35:34;16.30;;;7.10;;
22030;SDS011;11179;52.106;21.024;2023-09-07T09:38:12;10.40;;;5.77;;
22030;SDS011;11179;52.106;21.024;2023-09-07T09:40:42;12.27;;;6.10;;
22030;SDS011;11179;52.106;21.024;2023-09-07T09:43:18;10.37;;;6.03;;
22030;SDS011;11179;52.106;21.024;2023-09-07T09:45:50;11.77;;;6.67;;
22030;SDS011;11179;52.106;21.024;2023-09-07T09:48:55;12.83;;;6.20;;
22030;SDS011;11179;52.106;21.024;2023-09-07T09:51:54;13.40;;;6.57;;
22030;SDS011;11179;52.106;21.024;2023-09-07T09:54:33;13.33;;;6.80;;
22030;SDS011;11179;52.106;21.024;2023-09-07T09:57:07;14.53;;;6.33;;
22030;SDS011;11179;52.106;21.024;2023-09-07T09:59:46;14.50;;;5.93;;
22030;SDS011;11179;52.106;21.024;2023-09-07T10:06:17;10.90;;;5.53;;
22030;SDS011;11179;52.106;21.024;2023-09-07T10:11:50;9.90;;;4.70;;
22030;SDS011;11179;52.106;21.024;2023-09-07T10:21:05;11.80;;;5.50;;
22030;SDS011;11179;52.106;21.024;2023-09-07T10:23:41;11.00;;;5.90;;
22030;SDS011;11179;52.106;21.024;2023-09-07T10:26:30;11.00;;;5.37;;
22030;SDS011;11179;52.106;21.024;2023-09-07T10:29:09;7.93;;;3.60;;
22030;SDS011;11179;52.106;21.024;2023-09-07T10:31:54;8.30;;;4.80;;
22030;SDS011;11179;52.106;21.024;2023-09-07T10:34:54;9.10;;;5.23;;
22030;SDS011;11179;52.106;21.024;2023-09-07T10:37:52;9.50;;;4.90;;
22030;SDS011;11179;52.106;21.024;2023-09-07T10:41:00;14.43;;;5.50;;
22030;SDS011;11179;52.106;21.024;2023-09-07T10:43:33;10.37;;;6.17;;
22030;SDS011;11179;52.106;21.024;2023-09-07T10:46:30;10.63;;;4.80;;
22030;SDS011;11179;52.106;21.024;2023-09-07T10:56:09;8.57;;;4.60;;
22030;SDS011;11179;52.106;21.024;2023-09-07T10:58:53;16.93;;;5.20;;
22030;SDS011;11179;52.106;21.024;2023-09-07T11:01:24;11.97;;;4.60;;
22030;SDS011;11179;52.106;21.024;2023-09-07T11:03:49;11.97;;;5.40;;
22030;SDS011;11179;52.106;21.024;2023-09-07T11:06:28;7.87;;;4.57;;
22030;SDS011;11179;52.106;21.024;2023-09-07T11:09:39;9.20;;;4.90;;
22030;SDS011;11179;52.106;21.024;2023-09-07T11:12:36;9.40;;;4.87;;
22030;SDS011;11179;52.106;21.024;2023-09-07T11:15:11;10.10;;;5.20;;
22030;SDS011;11179;52.106;21.024;2023-09-07T11:24:19;8.30;;;4.60;;
22030;SDS011;11179;52.106;21.024;2023-09-07T11:27:12;13.10;;;4.40;;
22030;SDS011;11179;52.106;21.024;2023-09-07T11:29:52;15.43;;;5.10;;
22030;SDS011;11179;52.106;21.024;2023-09-07T11:32:32;9.27;;;5.10;;
22030;SDS011;11179;52.106;21.024;2023-09-07T11:35:03;15.00;;;5.07;;
22030;SDS011;11179;52.106;21.024;2023-09-07T11:38:14;10.60;;;5.10;;
22030;SDS011;11179;52.106;21.024;2023-09-07T11:40:54;8.80;;;4.70;;
22030;SDS011;11179;52.106;21.024;2023-09-07T11:43:39;11.33;;;5.37;;
22030;SDS011;11179;52.106;21.024;2023-09-07T11:46:18;7.23;;;4.00;;
22030;SDS011;11179;52.106;21.024;2023-09-07T11:48:52;8.70;;;4.10;;
22030;SDS011;11179;52.106;21.024;2023-09-07T11:51:57;11.63;;;4.43;;
22030;SDS011;11179;52.106;21.024;2023-09-07T11:57:47;8.87;;;4.90;;
22030;SDS011;11179;52.106;21.024;2023-09-07T12:00:44;7.47;;;4.20;;
22030;SDS011;11179;52.106;21.024;2023-09-07T12:03:37;11.43;;;3.97;;
22030;SDS011;11179;52.106;21.024;2023-09-07T12:09:23;8.37;;;4.47;;
22030;SDS011;11179;52.106;21.024;2023-09-07T12:12:00;10.40;;;5.30;;
22030;SDS011;11179;52.106;21.024;2023-09-07T12:15:05;10.17;;;4.83;;
22030;SDS011;11179;52.106;21.024;2023-09-07T12:17:32;7.23;;;4.40;;
22030;SDS011;11179;52.106;21.024;2023-09-07T12:20:29;9.03;;;4.73;;
22030;SDS011;11179;52.106;21.024;2023-09-07T12:23:01;10.30;;;4.67;;
22030;SDS011;11179;52.106;21.024;2023-09-07T12:25:32;11.00;;;4.57;;
22030;SDS011;11179;52.106;21.024;2023-09-07T12:28:07;7.67;;;4.37;;
22030;SDS011;11179;52.106;21.024;2023-09-07T12:30:44;9.20;;;4.37;;
22030;SDS011;11179;52.106;21.024;2023-09-07T12:36:06;8.77;;;4.50;;
22030;SDS011;11179;52.106;21.024;2023-09-07T12:38:42;9.17;;;4.10;;
22030;SDS011;11179;52.106;21.024;2023-09-07T12:41:17;7.63;;;4.00;;
22030;SDS011;11179;52.106;21.024;2023-09-07T12:46:44;11.37;;;4.87;;
22030;SDS011;11179;52.106;21.024;2023-09-07T12:49:11;8.97;;;4.00;;
22030;SDS011;11179;52.106;21.024;2023-09-07T12:51:58;7.43;;;3.80;;
22030;SDS011;11179;52.106;21.024;2023-09-07T12:54:36;11.93;;;4.40;;
22030;SDS011;11179;52.106;21.024;2023-09-07T12:57:09;7.80;;;3.80;;
22030;SDS011;11179;52.106;21.024;2023-09-07T12:59:36;6.73;;;3.90;;
22030;SDS011;11179;52.106;21.024;2023-09-07T13:02:32;14.40;;;4.10;;
22030;SDS011;11179;52.106;21.024;2023-09-07T13:05:13;10.30;;;4.47;;
22030;SDS011;11179;52.106;21.024;2023-09-07T13:07:40;8.27;;;3.53;;
22030;SDS011;11179;52.106;21.024;2023-09-07T13:10:46;9.00;;;4.03;;
22030;SDS011;11179;52.106;21.024;2023-09-07T13:13:34;7.23;;;3.33;;
22030;SDS011;11179;52.106;21.024;2023-09-07T13:16:19;7.97;;;4.10;;
22030;SDS011;11179;52.106;21.024;2023-09-07T13:19:05;9.23;;;3.70;;
22030;SDS011;11179;52.106;21.024;2023-09-07T13:21:31;9.93;;;4.03;;
22030;SDS011;11179;52.106;21.024;2023-09-07T13:24:18;10.40;;;3.67;;
22030;SDS011;11179;52.106;21.024;2023-09-07T13:37:01;12.53;;;3.77;;
22030;SDS011;11179;52.106;21.024;2023-09-07T13:39:40;10.83;;;3.90;;
22030;SDS011;11179;52.106;21.024;2023-09-07T13:42:41;10.87;;;4.13;;
22030;SDS011;11179;52.106;21.024;2023-09-07T13:45:34;12.13;;;3.57;;
22030;SDS011;11179;52.106;21.024;2023-09-07T13:48:30;14.80;;;3.70;;
22030;SDS011;11179;52.106;21.024;2023-09-07T13:51:32;8.17;;;3.47;;
22030;SDS011;11179;52.106;21.024;2023-09-07T13:54:12;11.07;;;3.53;;
22030;SDS011;11179;52.106;21.024;2023-09-07T13:57:15;9.33;;;4.20;;
22030;SDS011;11179;52.106;21.024;2023-09-07T14:00:29;9.20;;;3.43;;
22030;SDS011;11179;52.106;21.024;2023-09-07T14:06:45;7.20;;;3.77;;
22030;SDS011;11179;52.106;21.024;2023-09-07T14:09:24;6.40;;;3.50;;
22030;SDS011;11179;52.106;21.024;2023-09-07T14:11:50;5.93;;;3.40;;
22030;SDS011;11179;52.106;21.024;2023-09-07T14:14:15;7.07;;;3.93;;
22030;SDS011;11179;52.106;21.024;2023-09-07T14:16:41;9.10;;;3.60;;
22030;SDS011;11179;52.106;21.024;2023-09-07T14:19:07;7.10;;;3.60;;
22030;SDS011;11179;52.106;21.024;2023-09-07T14:21:32;7.70;;;3.10;;
22030;SDS011;11179;52.106;21.024;2023-09-07T14:23:57;11.17;;;3.80;;
22030;SDS011;11179;52.106;21.024;2023-09-07T14:26:23;6.13;;;3.10;;
22030;SDS011;11179;52.106;21.024;2023-09-07T14:28:48;10.90;;;3.97;;
22030;SDS011;11179;52.106;21.024;2023-09-07T14:31:13;7.40;;;3.20;;
22030;SDS011;11179;52.106;21.024;2023-09-07T14:33:39;9.70;;;4.00;;
22030;SDS011;11179;52.106;21.024;2023-09-07T14:36:07;8.23;;;3.17;;
22030;SDS011;11179;52.106;21.024;2023-09-07T14:38:34;7.17;;;4.10;;
22030;SDS011;11179;52.106;21.024;2023-09-07T14:41:05;6.60;;;3.30;;
22030;SDS011;11179;52.106;21.024;2023-09-07T14:43:30;7.47;;;3.33;;
22030;SDS011;11179;52.106;21.024;2023-09-07T14:45:58;8.43;;;3.43;;
22030;SDS011;11179;52.106;21.024;2023-09-07T14:56:29;13.30;;;4.00;;
22030;SDS011;11179;52.106;21.024;2023-09-07T14:59:18;9.37;;;3.50;;
22030;SDS011;11179;52.106;21.024;2023-09-07T15:01:47;7.10;;;3.57;;
22030;SDS011;11179;52.106;21.024;2023-09-07T15:04:31;8.50;;;3.60;;
22030;SDS011;11179;52.106;21.024;2023-09-07T15:07:17;8.10;;;3.87;;
22030;SDS011;11179;52.106;21.024;2023-09-07T15:12:51;8.47;;;4.20;;
22030;SDS011;11179;52.106;21.024;2023-09-07T15:15:54;8.03;;;3.83;;
22030;SDS011;11179;52.106;21.024;2023-09-07T15:22:32;7.10;;;3.30;;
22030;SDS011;11179;52.106;21.024;2023-09-07T15:25:12;16.83;;;4.00;;
22030;SDS011;11179;52.106;21.024;2023-09-07T15:27:55;7.20;;;3.50;;
22030;SDS011;11179;52.106;21.024;2023-09-07T15:30:49;9.50;;;3.13;;
22030;SDS011;11179;52.106;21.024;2023-09-07T15:36:42;7.50;;;3.10;;
22030;SDS011;11179;52.106;21.024;2023-09-07T15:39:23;8.27;;;3.50;;
22030;SDS011;11179;52.106;21.024;2023-09-07T15:45:09;7.60;;;3.57;;
22030;SDS011;11179;52.106;21.024;2023-09-07T15:47:37;6.93;;;3.47;;
22030;SDS011;11179;52.106;21.024;2023-09-07T15:50:03;6.90;;;3.27;;
22030;SDS011;11179;52.106;21.024;2023-09-07T15:55:43;11.67;;;3.73;;
22030;SDS011;11179;52.106;21.024;2023-09-07T15:59:15;10.70;;;3.70;;
22030;SDS011;11179;52.106;21.024;2023-09-07T16:02:18;6.43;;;3.23;;
22030;SDS011;11179;52.106;21.024;2023-09-07T16:05:14;6.97;;;3.40;;
22030;SDS011;11179;52.106;21.024;2023-09-07T16:08:10;13.17;;;4.00;;